sensor_id;sensor_type;location;lat;lon;timestamp;temperature;humidity
59999;DHT22;45859;51.378;6.736;2022-10-16T00:00:44;13.20;99.90
59999;DHT22;45859;51.378;6.736;2022-10-16T00:03:10;13.10;99.90
59999;DHT22;45859;51.378;6.736;2022-10-16T00:05:41;13.10;99.90
59999;DHT22;45859;51.378;6.736;2022-10-16T00:08:08;13.10;99.90
59999;DHT22;45859;51.378;6.736;2022-10-16T00:10:34;12.90;99.90
59999;DHT22;45859;51.378;6.736;2022-10-16T00:13:00;13.00;99.90
59999;DHT22;45859;51.378;6.736;2022-10-16T00:15:25;13.00;99.90
59999;DHT22;45859;51.378;6.736;2022-10-16T00:17:51;13.10;99.90
59999;DHT22;45859;51.378;6.736;2022-10-16T00:20:16;13.20;99.90
59999;DHT22;45859;51.378;6.736;2022-10-16T00:22:42;13.10;99.90
59999;DHT22;45859;51.378;6.736;2022-10-16T00:25:08;13.10;99.90
59999;DHT22;45859;51.378;6.736;2022-10-16T00:27:34;13.30;99.90
59999;DHT22;45859;51.378;6.736;2022-10-16T00:29:59;13.30;99.90
59999;DHT22;45859;51.378;6.736;2022-10-16T00:32:25;13.30;99.90
59999;DHT22;45859;51.378;6.736;2022-10-16T00:34:51;13.10;99.90
59999;DHT22;45859;51.378;6.736;2022-10-16T00:37:16;13.20;99.90
59999;DHT22;45859;51.378;6.736;2022-10-16T00:39:42;13.10;99.90
59999;DHT22;45859;51.378;6.736;2022-10-16T00:42:17;13.20;99.90
59999;DHT22;45859;51.378;6.736;2022-10-16T00:47:32;13.20;99.90
59999;DHT22;45859;51.378;6.736;2022-10-16T00:50:03;13.20;99.90
59999;DHT22;45859;51.378;6.736;2022-10-16T00:52:31;13.20;99.90
59999;DHT22;45859;51.378;6.736;2022-10-16T00:54:57;13.20;99.90
59999;DHT22;45859;51.378;6.736;2022-10-16T00:57:24;13.20;99.90
59999;DHT22;45859;51.378;6.736;2022-10-16T00:59:50;13.20;99.90
59999;DHT22;45859;51.378;6.736;2022-10-16T01:02:16;13.10;99.90
59999;DHT22;45859;51.378;6.736;2022-10-16T01:04:46;13.00;99.90
59999;DHT22;45859;51.378;6.736;2022-10-16T01:12:38;13.10;99.90
59999;DHT22;45859;51.378;6.736;2022-10-16T01:15:17;13.10;99.90
59999;DHT22;45859;51.378;6.736;2022-10-16T01:17:57;12.90;99.90
59999;DHT22;45859;51.378;6.736;2022-10-16T01:20:33;13.00;99.90
59999;DHT22;45859;51.378;6.736;2022-10-16T01:23:18;12.90;99.90
59999;DHT22;45859;51.378;6.736;2022-10-16T01:26:19;13.00;99.90
59999;DHT22;45859;51.378;6.736;2022-10-16T01:31:46;13.00;99.90
59999;DHT22;45859;51.378;6.736;2022-10-16T01:34:16;13.00;99.90
59999;DHT22;45859;51.378;6.736;2022-10-16T01:36:47;13.10;99.90
59999;DHT22;45859;51.378;6.736;2022-10-16T01:39:20;13.20;99.90
59999;DHT22;45859;51.378;6.736;2022-10-16T01:42:14;13.20;99.90
59999;DHT22;45859;51.378;6.736;2022-10-16T01:44:42;13.20;99.90
59999;DHT22;45859;51.378;6.736;2022-10-16T01:47:10;13.20;99.90
59999;DHT22;45859;51.378;6.736;2022-10-16T01:49:38;13.60;99.90
59999;DHT22;45859;51.378;6.736;2022-10-16T01:52:07;13.30;99.90
59999;DHT22;45859;51.378;6.736;2022-10-16T01:54:36;13.40;99.90
59999;DHT22;45859;51.378;6.736;2022-10-16T01:57:05;13.30;99.90
59999;DHT22;45859;51.378;6.736;2022-10-16T01:59:32;13.30;99.90
59999;DHT22;45859;51.378;6.736;2022-10-16T02:02:03;13.30;99.90
59999;DHT22;45859;51.378;6.736;2022-10-16T02:07:26;13.20;99.90
59999;DHT22;45859;51.378;6.736;2022-10-16T02:09:51;13.20;99.90
59999;DHT22;45859;51.378;6.736;2022-10-16T02:14:47;13.10;99.90
59999;DHT22;45859;51.378;6.736;2022-10-16T02:17:15;13.10;99.90
59999;DHT22;45859;51.378;6.736;2022-10-16T02:19:42;13.10;99.90
59999;DHT22;45859;51.378;6.736;2022-10-16T02:22:11;13.00;99.90
59999;DHT22;45859;51.378;6.736;2022-10-16T02:25:01;13.00;99.90
59999;DHT22;45859;51.378;6.736;2022-10-16T02:30:37;13.10;99.90
59999;DHT22;45859;51.378;6.736;2022-10-16T02:33:07;13.20;99.90
59999;DHT22;45859;51.378;6.736;2022-10-16T02:35:34;13.20;99.90
59999;DHT22;45859;51.378;6.736;2022-10-16T02:38:01;13.20;99.90
59999;DHT22;45859;51.378;6.736;2022-10-16T02:40:27;13.20;99.90
59999;DHT22;45859;51.378;6.736;2022-10-16T02:42:54;13.20;99.90
59999;DHT22;45859;51.378;6.736;2022-10-16T02:45:21;13.20;99.90
59999;DHT22;45859;51.378;6.736;2022-10-16T02:47:47;13.20;99.90
59999;DHT22;45859;51.378;6.736;2022-10-16T02:50:13;13.10;99.90
59999;DHT22;45859;51.378;6.736;2022-10-16T02:52:39;13.20;99.90
59999;DHT22;45859;51.378;6.736;2022-10-16T02:55:05;13.20;99.90
59999;DHT22;45859;51.378;6.736;2022-10-16T02:57:31;13.20;99.90
59999;DHT22;45859;51.378;6.736;2022-10-16T02:59:57;13.20;99.90
59999;DHT22;45859;51.378;6.736;2022-10-16T03:02:23;13.20;99.90
59999;DHT22;45859;51.378;6.736;2022-10-16T03:04:49;13.20;99.90
59999;DHT22;45859;51.378;6.736;2022-10-16T03:07:14;13.20;99.90
59999;DHT22;45859;51.378;6.736;2022-10-16T03:09:40;13.30;99.90
59999;DHT22;45859;51.378;6.736;2022-10-16T03:12:06;13.50;99.90
59999;DHT22;45859;51.378;6.736;2022-10-16T03:14:32;13.30;99.90
59999;DHT22;45859;51.378;6.736;2022-10-16T03:16:57;13.20;99.90
59999;DHT22;45859;51.378;6.736;2022-10-16T03:19:23;13.30;99.90
59999;DHT22;45859;51.378;6.736;2022-10-16T03:21:49;13.30;99.90
59999;DHT22;45859;51.378;6.736;2022-10-16T03:24:14;13.20;99.90
59999;DHT22;45859;51.378;6.736;2022-10-16T03:26:40;13.20;99.90
59999;DHT22;45859;51.378;6.736;2022-10-16T03:29:06;13.20;99.90
59999;DHT22;45859;51.378;6.736;2022-10-16T03:31:32;13.20;99.90
59999;DHT22;45859;51.378;6.736;2022-10-16T03:33:58;13.20;99.90
59999;DHT22;45859;51.378;6.736;2022-10-16T03:36:23;13.20;99.90
59999;DHT22;45859;51.378;6.736;2022-10-16T03:38:49;13.10;99.90
59999;DHT22;45859;51.378;6.736;2022-10-16T03:41:15;13.10;99.90
59999;DHT22;45859;51.378;6.736;2022-10-16T03:43:40;13.00;99.90
59999;DHT22;45859;51.378;6.736;2022-10-16T03:46:06;13.10;99.90
59999;DHT22;45859;51.378;6.736;2022-10-16T03:48:32;13.10;99.90
59999;DHT22;45859;51.378;6.736;2022-10-16T03:50:58;13.00;99.90
59999;DHT22;45859;51.378;6.736;2022-10-16T03:53:23;13.00;99.90
59999;DHT22;45859;51.378;6.736;2022-10-16T03:55:49;12.90;99.90
59999;DHT22;45859;51.378;6.736;2022-10-16T03:58:15;12.90;99.90
59999;DHT22;45859;51.378;6.736;2022-10-16T04:00:44;12.90;99.90
59999;DHT22;45859;51.378;6.736;2022-10-16T04:03:10;12.90;99.90
59999;DHT22;45859;51.378;6.736;2022-10-16T04:05:36;12.80;99.90
59999;DHT22;45859;51.378;6.736;2022-10-16T04:08:02;12.80;99.90
59999;DHT22;45859;51.378;6.736;2022-10-16T04:10:28;12.80;99.90
59999;DHT22;45859;51.378;6.736;2022-10-16T04:12:54;12.80;99.90
59999;DHT22;45859;51.378;6.736;2022-10-16T04:15:24;12.90;99.90
59999;DHT22;45859;51.378;6.736;2022-10-16T04:17:50;12.80;99.90
59999;DHT22;45859;51.378;6.736;2022-10-16T04:20:16;13.00;99.90
59999;DHT22;45859;51.378;6.736;2022-10-16T04:22:42;12.80;99.90
59999;DHT22;45859;51.378;6.736;2022-10-16T04:25:07;12.90;99.90
59999;DHT22;45859;51.378;6.736;2022-10-16T04:27:33;12.80;99.90
59999;DHT22;45859;51.378;6.736;2022-10-16T04:29:59;12.80;99.90
59999;DHT22;45859;51.378;6.736;2022-10-16T04:32:26;12.80;99.90
59999;DHT22;45859;51.378;6.736;2022-10-16T04:34:52;12.80;99.90
59999;DHT22;45859;51.378;6.736;2022-10-16T04:37:18;12.80;99.90
59999;DHT22;45859;51.378;6.736;2022-10-16T04:39:43;12.80;99.90
59999;DHT22;45859;51.378;6.736;2022-10-16T04:42:10;12.80;99.90
59999;DHT22;45859;51.378;6.736;2022-10-16T04:44:36;12.80;99.90
59999;DHT22;45859;51.378;6.736;2022-10-16T04:47:02;12.70;99.90
59999;DHT22;45859;51.378;6.736;2022-10-16T04:49:27;12.70;99.90
59999;DHT22;45859;51.378;6.736;2022-10-16T04:51:53;12.70;99.90
59999;DHT22;45859;51.378;6.736;2022-10-16T04:54:18;12.70;99.90
59999;DHT22;45859;51.378;6.736;2022-10-16T04:56:44;12.70;99.90
59999;DHT22;45859;51.378;6.736;2022-10-16T04:59:14;12.70;99.90
59999;DHT22;45859;51.378;6.736;2022-10-16T05:01:39;12.70;99.90
59999;DHT22;45859;51.378;6.736;2022-10-16T05:04:05;12.70;99.90
59999;DHT22;45859;51.378;6.736;2022-10-16T05:06:31;12.80;99.90
59999;DHT22;45859;51.378;6.736;2022-10-16T05:08:56;12.70;99.90
59999;DHT22;45859;51.378;6.736;2022-10-16T05:11:22;12.70;99.90
59999;DHT22;45859;51.378;6.736;2022-10-16T05:13:47;12.80;99.90
59999;DHT22;45859;51.378;6.736;2022-10-16T05:16:13;12.80;99.90
59999;DHT22;45859;51.378;6.736;2022-10-16T05:18:39;12.80;99.90
59999;DHT22;45859;51.378;6.736;2022-10-16T05:21:04;13.00;99.90
59999;DHT22;45859;51.378;6.736;2022-10-16T05:23:31;12.80;99.90
59999;DHT22;45859;51.378;6.736;2022-10-16T05:25:57;12.80;99.90
59999;DHT22;45859;51.378;6.736;2022-10-16T05:28:28;12.80;99.90
59999;DHT22;45859;51.378;6.736;2022-10-16T05:30:54;12.80;99.90
59999;DHT22;45859;51.378;6.736;2022-10-16T05:33:21;12.80;99.90
59999;DHT22;45859;51.378;6.736;2022-10-16T05:35:47;12.80;99.90
59999;DHT22;45859;51.378;6.736;2022-10-16T05:38:13;12.80;99.90
59999;DHT22;45859;51.378;6.736;2022-10-16T05:40:38;13.30;99.90
59999;DHT22;45859;51.378;6.736;2022-10-16T05:43:04;13.10;99.90
59999;DHT22;45859;51.378;6.736;2022-10-16T05:45:30;12.80;99.90
59999;DHT22;45859;51.378;6.736;2022-10-16T05:47:56;12.70;99.90
59999;DHT22;45859;51.378;6.736;2022-10-16T05:50:21;12.80;99.90
59999;DHT22;45859;51.378;6.736;2022-10-16T05:52:47;13.00;99.90
59999;DHT22;45859;51.378;6.736;2022-10-16T05:55:12;12.80;99.90
59999;DHT22;45859;51.378;6.736;2022-10-16T05:57:38;12.70;99.90
59999;DHT22;45859;51.378;6.736;2022-10-16T06:00:05;12.80;99.90
59999;DHT22;45859;51.378;6.736;2022-10-16T06:02:30;12.70;99.90
59999;DHT22;45859;51.378;6.736;2022-10-16T06:04:56;12.70;99.90
59999;DHT22;45859;51.378;6.736;2022-10-16T06:07:22;12.60;99.90
59999;DHT22;45859;51.378;6.736;2022-10-16T06:09:52;12.60;99.90
59999;DHT22;45859;51.378;6.736;2022-10-16T06:12:18;12.60;99.90
59999;DHT22;45859;51.378;6.736;2022-10-16T06:14:45;12.60;99.90
59999;DHT22;45859;51.378;6.736;2022-10-16T06:17:13;12.70;99.90
59999;DHT22;45859;51.378;6.736;2022-10-16T06:19:39;12.70;99.90
59999;DHT22;45859;51.378;6.736;2022-10-16T06:22:04;12.70;99.90
59999;DHT22;45859;51.378;6.736;2022-10-16T06:24:30;12.70;99.90
59999;DHT22;45859;51.378;6.736;2022-10-16T06:26:56;12.70;99.90
59999;DHT22;45859;51.378;6.736;2022-10-16T06:29:21;12.70;99.90
59999;DHT22;45859;51.378;6.736;2022-10-16T06:31:47;12.70;99.90
59999;DHT22;45859;51.378;6.736;2022-10-16T06:34:13;12.80;99.90
59999;DHT22;45859;51.378;6.736;2022-10-16T06:36:39;13.30;99.90
59999;DHT22;45859;51.378;6.736;2022-10-16T06:39:05;12.80;99.90
59999;DHT22;45859;51.378;6.736;2022-10-16T06:41:33;12.90;99.90
59999;DHT22;45859;51.378;6.736;2022-10-16T06:43:59;12.90;99.90
59999;DHT22;45859;51.378;6.736;2022-10-16T06:46:25;13.00;99.90
59999;DHT22;45859;51.378;6.736;2022-10-16T06:48:52;13.10;99.90
59999;DHT22;45859;51.378;6.736;2022-10-16T06:51:19;13.30;99.90
59999;DHT22;45859;51.378;6.736;2022-10-16T06:53:47;13.20;99.90
59999;DHT22;45859;51.378;6.736;2022-10-16T06:56:22;13.10;99.90
59999;DHT22;45859;51.378;6.736;2022-10-16T06:58:48;13.10;99.90
59999;DHT22;45859;51.378;6.736;2022-10-16T07:01:15;13.10;99.90
59999;DHT22;45859;51.378;6.736;2022-10-16T07:03:43;13.50;99.90
59999;DHT22;45859;51.378;6.736;2022-10-16T07:06:11;13.10;99.90
59999;DHT22;45859;51.378;6.736;2022-10-16T07:08:39;13.10;99.90
59999;DHT22;45859;51.378;6.736;2022-10-16T07:11:07;13.10;99.90
59999;DHT22;45859;51.378;6.736;2022-10-16T07:13:34;13.10;99.90
59999;DHT22;45859;51.378;6.736;2022-10-16T07:16:11;13.00;99.90
59999;DHT22;45859;51.378;6.736;2022-10-16T07:18:38;13.30;99.90
59999;DHT22;45859;51.378;6.736;2022-10-16T07:23:34;12.90;99.90
59999;DHT22;45859;51.378;6.736;2022-10-16T07:26:00;12.90;99.90
59999;DHT22;45859;51.378;6.736;2022-10-16T07:28:26;12.80;99.90
59999;DHT22;45859;51.378;6.736;2022-10-16T07:30:52;13.00;99.90
59999;DHT22;45859;51.378;6.736;2022-10-16T07:33:17;13.30;99.90
59999;DHT22;45859;51.378;6.736;2022-10-16T07:35:53;13.70;99.90
59999;DHT22;45859;51.378;6.736;2022-10-16T07:38:20;14.00;99.90
59999;DHT22;45859;51.378;6.736;2022-10-16T07:40:46;14.20;99.90
59999;DHT22;45859;51.378;6.736;2022-10-16T07:43:12;14.20;99.90
59999;DHT22;45859;51.378;6.736;2022-10-16T07:45:46;14.30;99.90
59999;DHT22;45859;51.378;6.736;2022-10-16T07:48:11;14.40;99.90
59999;DHT22;45859;51.378;6.736;2022-10-16T07:50:37;14.60;99.90
59999;DHT22;45859;51.378;6.736;2022-10-16T07:53:03;14.70;99.90
59999;DHT22;45859;51.378;6.736;2022-10-16T07:55:28;14.90;99.90
59999;DHT22;45859;51.378;6.736;2022-10-16T07:57:54;15.10;99.90
59999;DHT22;45859;51.378;6.736;2022-10-16T08:00:20;15.10;99.90
59999;DHT22;45859;51.378;6.736;2022-10-16T08:02:46;15.50;99.90
59999;DHT22;45859;51.378;6.736;2022-10-16T08:05:12;15.40;99.90
59999;DHT22;45859;51.378;6.736;2022-10-16T08:07:37;15.70;99.90
59999;DHT22;45859;51.378;6.736;2022-10-16T08:10:04;16.40;99.90
59999;DHT22;45859;51.378;6.736;2022-10-16T08:12:29;16.90;99.90
59999;DHT22;45859;51.378;6.736;2022-10-16T08:14:55;17.90;99.90
59999;DHT22;45859;51.378;6.736;2022-10-16T08:17:21;18.40;99.90
59999;DHT22;45859;51.378;6.736;2022-10-16T08:19:47;18.80;99.90
59999;DHT22;45859;51.378;6.736;2022-10-16T08:22:13;18.20;99.90
59999;DHT22;45859;51.378;6.736;2022-10-16T08:24:39;18.90;99.90
59999;DHT22;45859;51.378;6.736;2022-10-16T08:27:05;19.20;99.90
59999;DHT22;45859;51.378;6.736;2022-10-16T08:29:30;19.40;99.90
59999;DHT22;45859;51.378;6.736;2022-10-16T08:31:56;19.80;99.90
59999;DHT22;45859;51.378;6.736;2022-10-16T08:34:22;20.20;99.90
59999;DHT22;45859;51.378;6.736;2022-10-16T08:36:47;20.10;99.90
59999;DHT22;45859;51.378;6.736;2022-10-16T08:39:13;20.50;99.90
59999;DHT22;45859;51.378;6.736;2022-10-16T08:47:39;20.80;99.90
59999;DHT22;45859;51.378;6.736;2022-10-16T08:50:11;20.90;99.90
59999;DHT22;45859;51.378;6.736;2022-10-16T08:52:40;20.50;99.90
59999;DHT22;45859;51.378;6.736;2022-10-16T08:57:45;19.80;99.90
59999;DHT22;45859;51.378;6.736;2022-10-16T09:00:14;19.30;99.90
59999;DHT22;45859;51.378;6.736;2022-10-16T09:02:59;18.90;99.90
59999;DHT22;45859;51.378;6.736;2022-10-16T09:16:41;18.20;99.90
59999;DHT22;45859;51.378;6.736;2022-10-16T09:19:17;18.20;99.90
59999;DHT22;45859;51.378;6.736;2022-10-16T09:21:45;18.20;99.90
59999;DHT22;45859;51.378;6.736;2022-10-16T09:24:21;18.10;99.90
59999;DHT22;45859;51.378;6.736;2022-10-16T09:26:47;18.30;99.90
59999;DHT22;45859;51.378;6.736;2022-10-16T09:29:18;18.30;99.90
59999;DHT22;45859;51.378;6.736;2022-10-16T09:31:47;18.30;99.90
59999;DHT22;45859;51.378;6.736;2022-10-16T09:36:49;18.70;99.90
59999;DHT22;45859;51.378;6.736;2022-10-16T09:39:16;18.70;99.90
59999;DHT22;45859;51.378;6.736;2022-10-16T09:41:44;18.80;99.90
59999;DHT22;45859;51.378;6.736;2022-10-16T09:44:23;18.80;99.90
59999;DHT22;45859;51.378;6.736;2022-10-16T09:47:04;18.70;99.90
59999;DHT22;45859;51.378;6.736;2022-10-16T09:49:29;18.70;99.90
59999;DHT22;45859;51.378;6.736;2022-10-16T09:52:09;18.90;99.90
59999;DHT22;45859;51.378;6.736;2022-10-16T09:54:36;19.00;99.90
59999;DHT22;45859;51.378;6.736;2022-10-16T09:57:16;19.10;99.90
59999;DHT22;45859;51.378;6.736;2022-10-16T09:59:50;19.20;99.90
59999;DHT22;45859;51.378;6.736;2022-10-16T10:02:18;19.30;99.90
59999;DHT22;45859;51.378;6.736;2022-10-16T10:04:49;19.30;99.90
59999;DHT22;45859;51.378;6.736;2022-10-16T10:07:25;19.40;99.90
59999;DHT22;45859;51.378;6.736;2022-10-16T10:09:52;18.70;99.90
59999;DHT22;45859;51.378;6.736;2022-10-16T10:14:50;19.60;99.90
59999;DHT22;45859;51.378;6.736;2022-10-16T10:17:27;19.70;99.90
59999;DHT22;45859;51.378;6.736;2022-10-16T10:20:21;19.80;99.90
59999;DHT22;45859;51.378;6.736;2022-10-16T10:22:47;19.90;99.90
59999;DHT22;45859;51.378;6.736;2022-10-16T10:28:00;20.00;99.90
59999;DHT22;45859;51.378;6.736;2022-10-16T10:30:53;19.80;99.90
59999;DHT22;45859;51.378;6.736;2022-10-16T10:35:50;20.00;99.90
59999;DHT22;45859;51.378;6.736;2022-10-16T10:38:32;20.10;99.90
59999;DHT22;45859;51.378;6.736;2022-10-16T10:46:41;20.10;99.90
59999;DHT22;45859;51.378;6.736;2022-10-16T10:49:19;20.20;99.90
59999;DHT22;45859;51.378;6.736;2022-10-16T10:52:02;20.40;99.90
59999;DHT22;45859;51.378;6.736;2022-10-16T11:00:02;20.30;99.90
59999;DHT22;45859;51.378;6.736;2022-10-16T11:02:44;20.20;99.90
59999;DHT22;45859;51.378;6.736;2022-10-16T11:05:43;20.10;99.90
59999;DHT22;45859;51.378;6.736;2022-10-16T11:08:11;20.10;99.90
59999;DHT22;45859;51.378;6.736;2022-10-16T11:10:52;20.10;99.90
59999;DHT22;45859;51.378;6.736;2022-10-16T11:16:26;20.40;99.90
59999;DHT22;45859;51.378;6.736;2022-10-16T11:25:22;20.50;99.90
59999;DHT22;45859;51.378;6.736;2022-10-16T11:36:11;20.70;99.90
59999;DHT22;45859;51.378;6.736;2022-10-16T11:42:08;20.50;99.90
59999;DHT22;45859;51.378;6.736;2022-10-16T11:44:42;20.50;99.90
59999;DHT22;45859;51.378;6.736;2022-10-16T11:50:10;20.30;99.90
59999;DHT22;45859;51.378;6.736;2022-10-16T11:55:38;20.40;99.90
59999;DHT22;45859;51.378;6.736;2022-10-16T11:58:38;20.50;99.90
59999;DHT22;45859;51.378;6.736;2022-10-16T12:09:30;20.00;99.90
59999;DHT22;45859;51.378;6.736;2022-10-16T12:11:57;20.10;99.90
59999;DHT22;45859;51.378;6.736;2022-10-16T12:14:38;20.20;99.90
59999;DHT22;45859;51.378;6.736;2022-10-16T12:17:37;20.10;99.90
59999;DHT22;45859;51.378;6.736;2022-10-16T12:25:31;19.60;99.90
59999;DHT22;45859;51.378;6.736;2022-10-16T12:28:04;19.40;99.90
59999;DHT22;45859;51.378;6.736;2022-10-16T12:30:37;19.40;99.90
59999;DHT22;45859;51.378;6.736;2022-10-16T12:33:21;19.40;99.90
59999;DHT22;45859;51.378;6.736;2022-10-16T12:35:47;19.50;99.90
59999;DHT22;45859;51.378;6.736;2022-10-16T12:38:19;19.60;99.90
59999;DHT22;45859;51.378;6.736;2022-10-16T12:40:54;19.60;99.90
59999;DHT22;45859;51.378;6.736;2022-10-16T12:45:45;19.60;99.90
59999;DHT22;45859;51.378;6.736;2022-10-16T12:48:20;19.50;99.90
59999;DHT22;45859;51.378;6.736;2022-10-16T12:50:47;19.40;99.90
59999;DHT22;45859;51.378;6.736;2022-10-16T12:53:20;19.40;99.90
59999;DHT22;45859;51.378;6.736;2022-10-16T12:56:02;19.50;99.90
59999;DHT22;45859;51.378;6.736;2022-10-16T13:04:29;19.70;99.90
59999;DHT22;45859;51.378;6.736;2022-10-16T13:09:37;19.30;99.90
59999;DHT22;45859;51.378;6.736;2022-10-16T13:28:21;18.90;99.90
59999;DHT22;45859;51.378;6.736;2022-10-16T13:30:53;18.80;99.90
59999;DHT22;45859;51.378;6.736;2022-10-16T13:33:33;18.80;99.90
59999;DHT22;45859;51.378;6.736;2022-10-16T13:36:01;18.80;99.90
59999;DHT22;45859;51.378;6.736;2022-10-16T13:38:29;18.80;99.90
59999;DHT22;45859;51.378;6.736;2022-10-16T13:41:11;18.90;99.90
59999;DHT22;45859;51.378;6.736;2022-10-16T13:44:05;19.00;99.90
59999;DHT22;45859;51.378;6.736;2022-10-16T13:46:36;19.10;99.90
59999;DHT22;45859;51.378;6.736;2022-10-16T13:49:05;19.10;99.90
59999;DHT22;45859;51.378;6.736;2022-10-16T13:51:31;19.10;99.90
59999;DHT22;45859;51.378;6.736;2022-10-16T13:53:58;19.10;99.90
59999;DHT22;45859;51.378;6.736;2022-10-16T13:56:29;19.20;99.90
59999;DHT22;45859;51.378;6.736;2022-10-16T13:59:03;19.10;99.90
59999;DHT22;45859;51.378;6.736;2022-10-16T14:01:42;19.20;99.90
59999;DHT22;45859;51.378;6.736;2022-10-16T14:04:10;19.30;99.90
59999;DHT22;45859;51.378;6.736;2022-10-16T14:06:41;19.20;99.90
59999;DHT22;45859;51.378;6.736;2022-10-16T14:09:08;19.20;99.90
59999;DHT22;45859;51.378;6.736;2022-10-16T14:11:43;19.20;99.90
59999;DHT22;45859;51.378;6.736;2022-10-16T14:14:12;19.30;99.90
59999;DHT22;45859;51.378;6.736;2022-10-16T14:16:43;19.20;99.90
59999;DHT22;45859;51.378;6.736;2022-10-16T14:21:46;19.20;99.90
59999;DHT22;45859;51.378;6.736;2022-10-16T14:24:32;19.20;99.90
59999;DHT22;45859;51.378;6.736;2022-10-16T14:27:00;19.20;99.90
59999;DHT22;45859;51.378;6.736;2022-10-16T14:29:27;19.20;99.90
59999;DHT22;45859;51.378;6.736;2022-10-16T14:32:02;19.20;99.90
59999;DHT22;45859;51.378;6.736;2022-10-16T14:34:33;19.20;99.90
59999;DHT22;45859;51.378;6.736;2022-10-16T14:37:23;19.30;99.90
59999;DHT22;45859;51.378;6.736;2022-10-16T14:39:51;19.30;99.90
59999;DHT22;45859;51.378;6.736;2022-10-16T14:42:18;19.20;99.90
59999;DHT22;45859;51.378;6.736;2022-10-16T14:44:46;19.20;99.90
59999;DHT22;45859;51.378;6.736;2022-10-16T14:47:17;19.20;99.90
59999;DHT22;45859;51.378;6.736;2022-10-16T14:49:47;19.10;99.90
59999;DHT22;45859;51.378;6.736;2022-10-16T14:52:13;19.10;99.90
59999;DHT22;45859;51.378;6.736;2022-10-16T14:54:40;19.10;99.90
59999;DHT22;45859;51.378;6.736;2022-10-16T14:57:05;19.10;99.90
59999;DHT22;45859;51.378;6.736;2022-10-16T14:59:41;19.10;99.90
59999;DHT22;45859;51.378;6.736;2022-10-16T15:04:56;19.00;99.90
59999;DHT22;45859;51.378;6.736;2022-10-16T15:07:22;18.90;99.90
59999;DHT22;45859;51.378;6.736;2022-10-16T15:09:48;18.70;99.90
59999;DHT22;45859;51.378;6.736;2022-10-16T15:12:14;18.60;99.90
59999;DHT22;45859;51.378;6.736;2022-10-16T15:14:39;18.50;99.90
59999;DHT22;45859;51.378;6.736;2022-10-16T15:17:05;18.40;99.90
59999;DHT22;45859;51.378;6.736;2022-10-16T15:19:30;18.30;99.90
59999;DHT22;45859;51.378;6.736;2022-10-16T15:21:56;18.20;99.90
59999;DHT22;45859;51.378;6.736;2022-10-16T15:24:22;18.20;99.90
59999;DHT22;45859;51.378;6.736;2022-10-16T15:26:48;18.10;99.90
59999;DHT22;45859;51.378;6.736;2022-10-16T15:29:15;18.10;99.90
59999;DHT22;45859;51.378;6.736;2022-10-16T15:31:41;18.00;99.90
59999;DHT22;45859;51.378;6.736;2022-10-16T15:34:09;17.90;99.90
59999;DHT22;45859;51.378;6.736;2022-10-16T15:36:36;17.90;99.90
59999;DHT22;45859;51.378;6.736;2022-10-16T15:39:04;17.90;99.90
59999;DHT22;45859;51.378;6.736;2022-10-16T15:41:30;17.80;99.90
59999;DHT22;45859;51.378;6.736;2022-10-16T15:43:55;17.80;99.90
59999;DHT22;45859;51.378;6.736;2022-10-16T15:46:22;17.80;99.90
59999;DHT22;45859;51.378;6.736;2022-10-16T15:48:49;17.80;99.90
59999;DHT22;45859;51.378;6.736;2022-10-16T15:51:16;17.70;99.90
59999;DHT22;45859;51.378;6.736;2022-10-16T15:53:42;17.60;99.90
59999;DHT22;45859;51.378;6.736;2022-10-16T15:56:09;17.50;99.90
59999;DHT22;45859;51.378;6.736;2022-10-16T15:58:36;17.50;99.90
59999;DHT22;45859;51.378;6.736;2022-10-16T16:01:02;17.40;99.90
59999;DHT22;45859;51.378;6.736;2022-10-16T16:03:29;17.40;99.90
59999;DHT22;45859;51.378;6.736;2022-10-16T16:05:55;17.30;99.90
59999;DHT22;45859;51.378;6.736;2022-10-16T16:08:21;17.20;99.90
59999;DHT22;45859;51.378;6.736;2022-10-16T16:11:07;17.30;99.90
59999;DHT22;45859;51.378;6.736;2022-10-16T16:13:33;17.20;99.90
59999;DHT22;45859;51.378;6.736;2022-10-16T16:15:59;17.20;99.90
59999;DHT22;45859;51.378;6.736;2022-10-16T16:18:24;17.30;99.90
59999;DHT22;45859;51.378;6.736;2022-10-16T16:20:51;17.20;99.90
59999;DHT22;45859;51.378;6.736;2022-10-16T16:23:16;17.20;99.90
59999;DHT22;45859;51.378;6.736;2022-10-16T16:25:42;17.10;99.90
59999;DHT22;45859;51.378;6.736;2022-10-16T16:28:08;17.00;99.90
59999;DHT22;45859;51.378;6.736;2022-10-16T16:30:36;16.90;99.90
59999;DHT22;45859;51.378;6.736;2022-10-16T16:33:02;16.70;99.90
59999;DHT22;45859;51.378;6.736;2022-10-16T16:35:28;16.70;99.90
59999;DHT22;45859;51.378;6.736;2022-10-16T16:37:53;16.70;99.90
59999;DHT22;45859;51.378;6.736;2022-10-16T16:40:19;16.70;99.90
59999;DHT22;45859;51.378;6.736;2022-10-16T16:42:48;16.70;99.90
59999;DHT22;45859;51.378;6.736;2022-10-16T16:45:13;16.60;99.90
59999;DHT22;45859;51.378;6.736;2022-10-16T16:47:39;16.60;99.90
59999;DHT22;45859;51.378;6.736;2022-10-16T16:50:05;16.50;99.90
59999;DHT22;45859;51.378;6.736;2022-10-16T16:52:32;16.40;99.90
59999;DHT22;45859;51.378;6.736;2022-10-16T16:54:58;16.40;99.90
59999;DHT22;45859;51.378;6.736;2022-10-16T16:57:24;16.40;99.90
59999;DHT22;45859;51.378;6.736;2022-10-16T16:59:50;16.40;99.90
59999;DHT22;45859;51.378;6.736;2022-10-16T17:02:16;16.30;99.90
59999;DHT22;45859;51.378;6.736;2022-10-16T17:04:42;16.30;99.90
59999;DHT22;45859;51.378;6.736;2022-10-16T17:07:07;16.30;99.90
59999;DHT22;45859;51.378;6.736;2022-10-16T17:09:33;16.30;99.90
59999;DHT22;45859;51.378;6.736;2022-10-16T17:11:59;16.30;99.90
59999;DHT22;45859;51.378;6.736;2022-10-16T17:14:25;16.30;99.90
59999;DHT22;45859;51.378;6.736;2022-10-16T17:16:52;16.30;99.90
59999;DHT22;45859;51.378;6.736;2022-10-16T17:19:18;16.30;99.90
59999;DHT22;45859;51.378;6.736;2022-10-16T17:21:45;16.30;99.90
59999;DHT22;45859;51.378;6.736;2022-10-16T17:24:12;16.30;99.90
59999;DHT22;45859;51.378;6.736;2022-10-16T17:26:38;16.30;99.90
59999;DHT22;45859;51.378;6.736;2022-10-16T17:29:06;16.30;99.90
59999;DHT22;45859;51.378;6.736;2022-10-16T17:31:35;16.20;99.90
59999;DHT22;45859;51.378;6.736;2022-10-16T17:34:03;16.20;99.90
59999;DHT22;45859;51.378;6.736;2022-10-16T17:36:31;16.20;99.90
59999;DHT22;45859;51.378;6.736;2022-10-16T17:39:06;16.20;99.90
59999;DHT22;45859;51.378;6.736;2022-10-16T17:41:34;16.20;99.90
59999;DHT22;45859;51.378;6.736;2022-10-16T17:44:00;16.20;99.90
59999;DHT22;45859;51.378;6.736;2022-10-16T17:46:26;16.20;99.90
59999;DHT22;45859;51.378;6.736;2022-10-16T17:48:53;16.20;99.90
59999;DHT22;45859;51.378;6.736;2022-10-16T17:51:21;16.10;99.90
59999;DHT22;45859;51.378;6.736;2022-10-16T17:53:52;16.10;99.90
59999;DHT22;45859;51.378;6.736;2022-10-16T17:56:18;16.10;99.90